createdAt,value
2018-06-23T00:00:04.860Z,97826.60
2018-06-23T00:02:32.820Z,97833.35
2018-06-23T00:05:00.806Z,97822.88
2018-06-23T00:07:28.801Z,97816.60
2018-06-23T00:09:56.831Z,97837.11
2018-06-23T00:12:24.823Z,97824.33
2018-06-23T00:14:52.880Z,97842.27
2018-06-23T00:17:21.908Z,97836.47
2018-06-23T00:19:49.932Z,97822.42
2018-06-23T00:22:17.887Z,97821.55
2018-06-23T00:24:45.804Z,97849.23
2018-06-23T00:27:13.743Z,97835.20
2018-06-23T00:29:41.711Z,97853.05
2018-06-23T00:32:09.685Z,97839.52
2018-06-23T00:34:37.698Z,97842.50
2018-06-23T00:37:06.233Z,97834.73
2018-06-23T00:39:34.180Z,97837.60
2018-06-23T00:42:02.253Z,97837.78
2018-06-23T00:44:30.309Z,97836.42
2018-06-23T00:46:58.928Z,97835.89
2018-06-23T00:49:26.897Z,97846.84
2018-06-23T00:51:54.905Z,97860.53
2018-06-23T00:54:23.582Z,97851.81
2018-06-23T00:56:51.621Z,97850.70
2018-06-23T00:59:30.734Z,97857.27
2018-06-23T01:01:58.803Z,97871.41
2018-06-23T01:04:26.846Z,97875.83
2018-06-23T01:06:54.895Z,97857.59
2018-06-23T01:09:22.834Z,97838.11
2018-06-23T01:11:50.801Z,97866.55
2018-06-23T01:14:19.210Z,97882.00
2018-06-23T01:16:47.167Z,97881.52
2018-06-23T01:19:15.665Z,97859.86
2018-06-23T01:21:43.700Z,97867.18
2018-06-23T01:24:11.671Z,97868.14
2018-06-23T01:26:39.634Z,97917.27
2018-06-23T01:29:07.524Z,97869.18
2018-06-23T01:31:35.799Z,97876.31
2018-06-23T01:34:04.933Z,97907.64
2018-06-23T01:36:32.864Z,97875.00
2018-06-23T01:39:00.770Z,97908.27
2018-06-23T01:41:28.675Z,97903.73
2018-06-23T01:43:56.620Z,97886.94
2018-06-23T01:46:24.605Z,97932.28
2018-06-23T01:48:52.508Z,97875.80
2018-06-23T01:51:20.491Z,97887.85
2018-06-23T01:53:49.064Z,97912.09
2018-06-23T01:56:17.062Z,97937.77
2018-06-23T01:58:45.088Z,97901.57
2018-06-23T02:01:13.132Z,97908.79
2018-06-23T02:03:41.688Z,97892.00
2018-06-23T02:06:09.646Z,97909.67
2018-06-23T02:08:38.160Z,97897.44
2018-06-23T02:11:06.277Z,97934.52
2018-06-23T02:13:35.080Z,97966.37
2018-06-23T02:16:08.558Z,97934.25
2018-06-23T02:18:42.327Z,97920.86
2018-06-23T02:21:15.793Z,97984.38
2018-06-23T02:23:49.199Z,97969.33
2018-06-23T02:26:23.641Z,97906.47
2018-06-23T02:28:57.114Z,97913.84
2018-06-23T02:31:30.502Z,97963.37
2018-06-23T02:34:04.463Z,97953.98
2018-06-23T02:36:32.417Z,97961.32
2018-06-23T02:39:00.387Z,97918.40
2018-06-23T02:41:30.793Z,97934.14
2018-06-23T02:44:01.396Z,97925.92
2018-06-23T02:46:29.411Z,97985.14
2018-06-23T02:48:57.456Z,97929.30
2018-06-23T02:51:26.010Z,97941.55
2018-06-23T02:53:53.926Z,97925.25
2018-06-23T02:56:22.639Z,97926.42
2018-06-23T02:58:51.085Z,97928.59
2018-06-23T03:01:19.210Z,97911.70
2018-06-23T03:03:47.307Z,97958.73
2018-06-23T03:06:15.288Z,97915.03
2018-06-23T03:08:43.404Z,97908.81
2018-06-23T03:11:11.673Z,97912.17
2018-06-23T03:13:39.737Z,97949.39
2018-06-23T03:16:07.885Z,97975.22
2018-06-23T03:18:36.145Z,97959.88
2018-06-23T03:21:04.207Z,97935.86
2018-06-23T03:23:32.808Z,98001.09
2018-06-23T03:26:01.114Z,97941.96
2018-06-23T03:28:29.629Z,97951.08
2018-06-23T03:30:57.591Z,97974.66
2018-06-23T03:33:25.698Z,97942.16
2018-06-23T03:35:53.711Z,97972.95
2018-06-23T03:38:21.671Z,98005.52
2018-06-23T03:40:49.617Z,97954.78
2018-06-23T03:43:19.441Z,97975.96
2018-06-23T03:45:48.418Z,97975.25
2018-06-23T03:48:16.527Z,97971.23
2018-06-23T03:50:44.599Z,97971.28
2018-06-23T03:53:12.782Z,97974.56
2018-06-23T03:55:41.156Z,98015.39
2018-06-23T03:58:09.122Z,97997.41
2018-06-23T04:00:42.120Z,97964.54
2018-06-23T04:03:10.160Z,97982.13
2018-06-23T04:05:44.238Z,97999.38
2018-06-23T04:08:12.299Z,97972.30
2018-06-23T04:10:40.393Z,97963.84
2018-06-23T04:13:08.409Z,97960.67
2018-06-23T04:15:36.835Z,97992.70
2018-06-23T04:18:04.971Z,97977.53
2018-06-23T04:20:32.934Z,98010.20
2018-06-23T04:23:01.001Z,97999.55
2018-06-23T04:25:28.993Z,98017.50
2018-06-23T04:27:57.150Z,98003.35
2018-06-23T04:30:25.406Z,98018.02
2018-06-23T04:32:53.342Z,98001.98
2018-06-23T04:35:23.687Z,98030.27
2018-06-23T04:37:51.721Z,98035.30
2018-06-23T04:40:20.249Z,98040.36
2018-06-23T04:42:48.455Z,98021.61
2018-06-23T04:45:17.354Z,98034.73
2018-06-23T04:47:45.345Z,98050.16
2018-06-23T04:50:13.433Z,98018.62
2018-06-23T04:52:41.532Z,98031.70
2018-06-23T04:55:09.632Z,98064.57
2018-06-23T04:57:38.692Z,98037.52
2018-06-23T05:00:06.848Z,98049.05
2018-06-23T05:02:35.007Z,98039.85
2018-06-23T05:05:03.038Z,98043.52
2018-06-23T05:07:31.144Z,98077.68
2018-06-23T05:09:59.201Z,98066.86
2018-06-23T05:12:27.156Z,98062.98
2018-06-23T05:14:55.127Z,98077.28
2018-06-23T05:17:23.176Z,98123.41
2018-06-23T05:19:51.694Z,98074.72
2018-06-23T05:22:19.749Z,98103.53
2018-06-23T05:24:47.782Z,98103.98
2018-06-23T05:27:15.697Z,98119.40
2018-06-23T05:29:44.443Z,98113.13
2018-06-23T05:32:12.489Z,98120.94
2018-06-23T05:34:40.548Z,98143.12
2018-06-23T05:37:08.931Z,98132.77
2018-06-23T05:39:36.837Z,98126.86
2018-06-23T05:42:05.492Z,98113.16
2018-06-23T05:44:33.546Z,98138.18
2018-06-23T05:47:01.517Z,98111.30
2018-06-23T05:49:29.636Z,98157.01
2018-06-23T05:51:57.671Z,98162.52
2018-06-23T05:54:25.734Z,98131.48
2018-06-23T05:56:56.877Z,98133.05
2018-06-23T05:59:24.968Z,98132.59
2018-06-23T06:01:53.159Z,98132.05
2018-06-23T06:04:21.151Z,98130.25
2018-06-23T06:06:49.156Z,98176.35
2018-06-23T06:09:17.141Z,98130.91
2018-06-23T06:11:45.534Z,98186.87
2018-06-23T06:14:13.501Z,98167.75
2018-06-23T06:17:52.920Z,98132.21
2018-06-23T06:20:21.183Z,98142.80
2018-06-23T06:22:49.241Z,98150.52
2018-06-23T06:25:19.387Z,98172.20
2018-06-23T06:27:48.976Z,98165.48
2018-06-23T06:30:17.033Z,98142.39
2018-06-23T06:32:46.574Z,98167.75
2018-06-23T06:35:14.941Z,98144.69
2018-06-23T06:37:43.670Z,98168.47
2018-06-23T06:40:11.905Z,98172.88
2018-06-23T06:42:39.948Z,98185.43
2018-06-23T06:45:07.979Z,98170.81
2018-06-23T06:47:37.012Z,98178.73
2018-06-23T06:50:05.275Z,98167.19
2018-06-23T06:52:33.706Z,98208.44
2018-06-23T06:55:01.763Z,98174.05
2018-06-23T06:57:29.742Z,98198.08
2018-06-23T06:59:58.045Z,98190.95
2018-06-23T07:02:26.049Z,98184.61
2018-06-23T07:04:54.157Z,98176.12
2018-06-23T07:07:22.156Z,98206.62
2018-06-23T07:09:50.069Z,98227.69
2018-06-23T07:12:17.968Z,98160.42
2018-06-23T07:14:45.932Z,98229.86
2018-06-23T07:17:14.010Z,98171.22
2018-06-23T07:19:42.130Z,98153.53
2018-06-23T07:22:10.027Z,98162.64
2018-06-23T07:24:38.755Z,98178.70
2018-06-23T07:27:06.819Z,98189.66
2018-06-23T07:29:34.832Z,98194.48
2018-06-23T07:32:03.954Z,98189.66
2018-06-23T07:34:32.022Z,98208.40
2018-06-23T07:36:59.887Z,98176.62
2018-06-23T07:39:28.149Z,98178.27
2018-06-23T07:41:56.096Z,98222.27
2018-06-23T07:44:24.015Z,98194.72
2018-06-23T07:46:51.984Z,98194.60
2018-06-23T07:49:20.138Z,98226.92
2018-06-23T07:51:48.092Z,98237.25
2018-06-23T07:54:16.296Z,98218.37
2018-06-23T07:56:44.359Z,98241.69
2018-06-23T07:59:12.428Z,98270.48
2018-06-23T08:01:40.449Z,98235.12
2018-06-23T08:04:08.501Z,98240.02
2018-06-23T08:06:36.505Z,98234.92
2018-06-23T08:09:07.148Z,98203.41
2018-06-23T08:11:35.199Z,98225.95
2018-06-23T08:14:03.441Z,98240.58
2018-06-23T08:16:31.467Z,98226.02
2018-06-23T08:18:59.413Z,98212.84
2018-06-23T08:21:27.529Z,98232.92
2018-06-23T08:23:55.478Z,98230.45
2018-06-23T08:26:24.438Z,98254.30
2018-06-23T08:28:52.985Z,98269.48
2018-06-23T08:31:20.944Z,98229.81
2018-06-23T08:33:48.918Z,98275.02
2018-06-23T08:36:16.920Z,98315.12
2018-06-23T08:38:44.950Z,98253.92
2018-06-23T08:41:12.923Z,98278.02
2018-06-23T08:43:40.953Z,98275.22
2018-06-23T08:46:08.862Z,98235.08
2018-06-23T08:48:36.794Z,98256.07
2018-06-23T08:51:04.722Z,98246.27
2018-06-23T08:53:32.716Z,98234.83
2018-06-23T08:56:00.620Z,98247.13
2018-06-23T08:58:28.618Z,98241.97
2018-06-23T09:00:57.084Z,98243.34
2018-06-23T09:03:25.167Z,98237.58
2018-06-23T09:05:53.157Z,98274.77
2018-06-23T09:08:21.161Z,98249.55
2018-06-23T09:10:49.047Z,98265.66
2018-06-23T09:13:17.087Z,98221.50
2018-06-23T09:15:45.058Z,98237.98
2018-06-23T09:18:13.074Z,98278.00
2018-06-23T09:20:41.088Z,98314.92
2018-06-23T09:23:09.306Z,98275.56
2018-06-23T09:25:37.468Z,98246.20
2018-06-23T09:28:05.561Z,98249.28
2018-06-23T09:30:33.583Z,98288.38
2018-06-23T09:33:01.581Z,98301.83
2018-06-23T09:35:29.794Z,98264.21
2018-06-23T09:37:57.812Z,98280.70
2018-06-23T09:40:26.066Z,98267.90
2018-06-23T09:42:54.188Z,98285.91
2018-06-23T09:45:22.092Z,98247.97
2018-06-23T09:47:50.429Z,98279.89
2018-06-23T09:50:18.644Z,98275.12
2018-06-23T09:52:46.832Z,98249.98
2018-06-23T09:55:15.040Z,98276.08
2018-06-23T09:57:43.274Z,98249.94
2018-06-23T10:00:15.693Z,98268.63
2018-06-23T10:02:46.163Z,98252.77
2018-06-23T10:05:14.169Z,98248.19
2018-06-23T10:07:42.176Z,98246.59
2018-06-23T10:10:10.167Z,98267.80
2018-06-23T10:12:38.432Z,98256.11
2018-06-23T10:15:06.715Z,98257.52
2018-06-23T10:17:34.610Z,98248.00
2018-06-23T10:20:02.689Z,98287.56
2018-06-23T10:22:30.646Z,98266.67
2018-06-23T10:24:58.640Z,98259.23
2018-06-23T10:27:26.616Z,98281.16
2018-06-23T10:29:54.533Z,98250.48
2018-06-23T10:32:22.995Z,98258.85
2018-06-23T10:34:51.381Z,98293.10
2018-06-23T10:37:19.410Z,98303.91
2018-06-23T10:39:47.523Z,98275.85
2018-06-23T10:42:15.505Z,98257.72
2018-06-23T10:44:43.547Z,98318.41
2018-06-23T10:47:11.510Z,98259.70
2018-06-23T10:49:39.477Z,98238.31
2018-06-23T10:52:07.398Z,98254.30
2018-06-23T10:54:35.958Z,98259.76
2018-06-23T10:57:04.147Z,98233.64
2018-06-23T10:59:32.143Z,98256.91
2018-06-23T11:02:00.157Z,98235.94
2018-06-23T11:04:28.354Z,98235.91
2018-06-23T11:06:56.424Z,98245.57
2018-06-23T11:09:25.289Z,98273.97
2018-06-23T11:11:53.261Z,98248.59
2018-06-23T11:14:21.167Z,98238.00
2018-06-23T11:16:49.306Z,98245.29
2018-06-23T11:19:17.221Z,98243.45
2018-06-23T11:21:45.702Z,98226.59
2018-06-23T11:24:13.767Z,98219.17
2018-06-23T11:26:41.684Z,98239.14
2018-06-23T11:29:09.648Z,98184.54
2018-06-23T11:31:37.973Z,98202.41
2018-06-23T11:34:05.951Z,98216.22
2018-06-23T11:36:33.934Z,98248.98
2018-06-23T11:39:02.577Z,98194.48
2018-06-23T11:41:30.718Z,98211.45
2018-06-23T11:43:58.756Z,98249.17
2018-06-23T11:46:27.080Z,98235.28
2018-06-23T11:48:55.060Z,98236.80
2018-06-23T11:51:22.969Z,98214.09
2018-06-23T11:53:50.985Z,98245.14
2018-06-23T11:56:19.042Z,98223.31
2018-06-23T11:58:47.351Z,98239.53
2018-06-23T12:01:15.765Z,98238.25
2018-06-23T12:03:43.680Z,98257.34
2018-06-23T12:06:12.388Z,98289.18
2018-06-23T12:08:40.271Z,98228.45
2018-06-23T12:11:08.874Z,98225.37
2018-06-23T12:13:36.906Z,98251.06
2018-06-23T12:16:04.829Z,98277.97
2018-06-23T12:18:32.834Z,98268.81
2018-06-23T12:21:00.769Z,98276.61
2018-06-23T12:23:28.860Z,98255.48
2018-06-23T12:25:56.790Z,98251.03
2018-06-23T12:28:24.838Z,98286.55
2018-06-23T12:30:52.799Z,98259.47
2018-06-23T12:33:20.728Z,98235.58
2018-06-23T12:35:49.168Z,98231.34
2018-06-23T12:38:17.371Z,98272.16
2018-06-23T12:40:45.336Z,98241.45
2018-06-23T12:43:13.307Z,98241.70
2018-06-23T12:45:42.162Z,98247.97
2018-06-23T12:48:10.177Z,98230.95
2018-06-23T12:50:38.145Z,98215.91
2018-06-23T12:53:06.986Z,98217.23
2018-06-23T12:55:35.504Z,98228.91
2018-06-23T12:58:03.500Z,98232.72
2018-06-23T13:00:31.597Z,98244.48
2018-06-23T13:02:59.624Z,98230.18
2018-06-23T13:05:27.670Z,98231.18
2018-06-23T13:07:56.087Z,98206.08
2018-06-23T13:10:24.127Z,98219.42
2018-06-23T13:12:52.130Z,98228.84
2018-06-23T13:15:20.277Z,98235.69
2018-06-23T13:17:48.374Z,98230.89
2018-06-23T13:20:17.645Z,98205.34
2018-06-23T13:22:45.920Z,98216.08
2018-06-23T13:25:13.896Z,98249.05
2018-06-23T13:27:41.910Z,98262.03
2018-06-23T13:30:10.412Z,98254.53
2018-06-23T13:32:38.538Z,98253.61
2018-06-23T13:35:06.489Z,98246.28
2018-06-23T13:37:34.964Z,98244.98
2018-06-23T13:40:02.879Z,98245.81
2018-06-23T13:42:30.918Z,98271.73
2018-06-23T13:44:59.032Z,98253.78
2018-06-23T13:47:27.178Z,98251.16
2018-06-23T13:49:55.205Z,98265.97
2018-06-23T13:52:23.187Z,98265.91
2018-06-23T13:54:51.367Z,98249.47
2018-06-23T13:57:19.765Z,98266.70
2018-06-23T13:59:48.394Z,98257.72
2018-06-23T14:02:16.440Z,98264.02
2018-06-23T14:04:44.993Z,98252.08
2018-06-23T14:07:13.185Z,98273.09
2018-06-23T14:09:41.416Z,98253.70
2018-06-23T14:12:09.412Z,98272.16
2018-06-23T14:14:37.466Z,98267.86
2018-06-23T14:17:06.310Z,98271.93
2018-06-23T14:19:34.385Z,98260.16
2018-06-23T14:22:02.506Z,98262.13
2018-06-23T14:24:30.543Z,98234.79
2018-06-23T14:26:58.533Z,98268.97
2018-06-23T14:29:26.626Z,98251.97
2018-06-23T14:31:54.695Z,98269.70
2018-06-23T14:34:22.684Z,98242.22
2018-06-23T14:36:50.727Z,98244.85
2018-06-23T14:39:18.696Z,98263.46
2018-06-23T14:41:46.681Z,98239.89
2018-06-23T14:44:14.664Z,98248.31
2018-06-23T14:46:42.759Z,98237.52
2018-06-23T14:49:10.730Z,98244.53
2018-06-23T14:51:38.910Z,98242.35
2018-06-23T14:54:06.954Z,98245.32
2018-06-23T14:56:36.038Z,98237.33
2018-06-23T14:59:05.003Z,98241.91
2018-06-23T15:01:32.992Z,98256.05
2018-06-23T15:04:00.951Z,98242.94
2018-06-23T15:06:29.052Z,98242.78
2018-06-23T15:09:07.958Z,98239.20
2018-06-23T15:11:47.012Z,98244.90
2018-06-23T15:14:15.212Z,98294.16
2018-06-23T15:16:43.344Z,98259.53
2018-06-23T15:19:11.410Z,98260.47
2018-06-23T15:21:39.486Z,98284.38
2018-06-23T15:24:08.048Z,98264.33
2018-06-23T15:26:36.087Z,98268.95
2018-06-23T15:29:04.220Z,98275.53
2018-06-23T15:31:32.277Z,98282.98
2018-06-23T15:34:00.911Z,98273.71
2018-06-23T15:36:29.109Z,98283.61
2018-06-23T15:38:57.106Z,98280.80
2018-06-23T15:41:25.092Z,98265.50
2018-06-23T15:43:53.056Z,98281.22
2018-06-23T15:46:21.127Z,98286.98
2018-06-23T15:48:49.397Z,98275.69
2018-06-23T15:51:17.473Z,98287.41
2018-06-23T15:53:45.574Z,98287.47
2018-06-23T15:56:13.727Z,98286.37
2018-06-23T15:58:42.669Z,98289.67
2018-06-23T16:01:10.607Z,98289.61
2018-06-23T16:03:38.633Z,98288.56
2018-06-23T16:06:07.018Z,98282.67
2018-06-23T16:08:34.963Z,98291.38
2018-06-23T16:11:03.558Z,98284.55
2018-06-23T16:13:31.560Z,98274.97
2018-06-23T16:15:59.530Z,98281.02
2018-06-23T16:18:27.570Z,98286.16
2018-06-23T16:20:55.540Z,98279.13
2018-06-23T16:23:23.475Z,98292.80
2018-06-23T16:25:51.796Z,98286.53
2018-06-23T16:28:19.810Z,98283.27
2018-06-23T16:30:47.817Z,98288.87
2018-06-23T16:33:15.951Z,98314.62
2018-06-23T16:35:44.381Z,98303.40
2018-06-23T16:38:12.347Z,98300.19
2018-06-23T16:40:41.577Z,98309.16
2018-06-23T16:43:09.540Z,98315.68
2018-06-23T16:45:37.794Z,98314.95
2018-06-23T16:48:06.163Z,98318.81
2018-06-23T16:50:34.574Z,98312.84
2018-06-23T16:53:02.728Z,98332.94
2018-06-23T16:55:30.915Z,98319.05
2018-06-23T16:57:58.908Z,98325.63
2018-06-23T17:00:27.717Z,98334.75
2018-06-23T17:02:55.643Z,98328.52
2018-06-23T17:05:24.792Z,98339.59
2018-06-23T17:07:53.018Z,98335.96
2018-06-23T17:10:21.039Z,98347.98
2018-06-23T17:12:49.585Z,98347.77
2018-06-23T17:15:17.574Z,98346.47
2018-06-23T17:17:45.588Z,98365.91
2018-06-23T17:20:13.887Z,98341.78
2018-06-23T17:22:41.928Z,98346.37
2018-06-23T17:25:11.170Z,98354.49
2018-06-23T17:27:39.239Z,98342.37
2018-06-23T17:30:07.323Z,98352.09
2018-06-23T17:32:35.747Z,98354.00
2018-06-23T17:35:03.773Z,98357.23
2018-06-23T17:37:34.504Z,98361.73
2018-06-23T17:40:02.544Z,98365.49
2018-06-23T17:42:30.463Z,98383.31
2018-06-23T17:44:58.507Z,98365.91
2018-06-23T17:47:26.504Z,98367.95
2018-06-23T17:49:54.520Z,98373.27
2018-06-23T17:52:22.444Z,98368.44
2018-06-23T17:54:50.351Z,98367.82
2018-06-23T17:57:19.306Z,98382.30
2018-06-23T17:59:47.473Z,98380.00
2018-06-23T18:02:15.482Z,98380.70
2018-06-23T18:04:43.466Z,98387.30
2018-06-23T18:07:11.849Z,98391.05
2018-06-23T18:09:39.802Z,98390.16
2018-06-23T18:12:08.594Z,98397.81
2018-06-23T18:14:37.628Z,98400.68
2018-06-23T18:17:05.588Z,98405.32
2018-06-23T18:19:33.556Z,98416.88
2018-06-23T18:22:01.553Z,98404.83
2018-06-23T18:24:29.562Z,98407.34
2018-06-23T18:26:57.511Z,98421.09
2018-06-23T18:29:25.987Z,98418.45
2018-06-23T18:31:53.934Z,98421.05
2018-06-23T18:34:22.871Z,98432.50
2018-06-23T18:36:50.932Z,98432.27
2018-06-23T18:39:19.002Z,98436.27
2018-06-23T18:41:47.186Z,98433.73
2018-06-23T18:44:18.111Z,98437.92
2018-06-23T18:46:46.186Z,98442.81
2018-06-23T18:49:15.659Z,98436.98
2018-06-23T18:51:44.067Z,98443.55
2018-06-23T18:54:12.040Z,98452.27
2018-06-23T18:56:41.665Z,98453.17
2018-06-23T18:59:09.615Z,98465.25
2018-06-23T19:01:37.947Z,98460.47
2018-06-23T19:04:06.023Z,98469.16
2018-06-23T19:06:34.160Z,98473.27
2018-06-23T19:09:02.845Z,98470.94
2018-06-23T19:11:30.869Z,98471.73
2018-06-23T19:13:58.816Z,98474.41
2018-06-23T19:16:26.845Z,98470.39
2018-06-23T19:18:55.630Z,98477.39
2018-06-23T19:21:23.713Z,98477.88
2018-06-23T19:23:52.127Z,98479.60
2018-06-23T19:26:20.285Z,98479.36
2018-06-23T19:28:48.735Z,98472.31
2018-06-23T19:31:16.712Z,98479.75
2018-06-23T19:33:44.780Z,98473.70
2018-06-23T19:36:14.424Z,98472.70
2018-06-23T19:38:42.440Z,98478.23
2018-06-23T19:41:27.619Z,98479.52
2018-06-23T19:43:56.113Z,98502.61
2018-06-23T19:46:24.071Z,98489.80
2018-06-23T19:48:52.224Z,98492.12
2018-06-23T19:51:20.383Z,98489.31
2018-06-23T19:53:48.510Z,98491.48
2018-06-23T19:56:16.458Z,98496.99
2018-06-23T19:58:44.350Z,98489.80
2018-06-23T20:01:12.385Z,98492.36
2018-06-23T20:03:40.268Z,98495.07
2018-06-23T20:06:08.553Z,98497.23
2018-06-23T20:08:36.592Z,98504.56
2018-06-23T20:11:04.511Z,98504.45
2018-06-23T20:13:32.449Z,98495.62
2018-06-23T20:16:00.387Z,98507.53
2018-06-23T20:18:34.785Z,98496.02
2018-06-23T20:21:02.793Z,98499.86
2018-06-23T20:23:30.864Z,98493.71
2018-06-23T20:25:58.991Z,98496.02
2018-06-23T20:28:26.948Z,98498.08
2018-06-23T20:30:55.212Z,98491.26
2018-06-23T20:33:23.237Z,98512.77
2018-06-23T20:35:51.226Z,98496.27
2018-06-23T20:38:19.292Z,98499.61
2018-06-23T20:40:47.250Z,98499.97
2018-06-23T20:43:16.270Z,98494.98
2018-06-23T20:45:44.666Z,98501.38
2018-06-23T20:48:12.856Z,98504.98
2018-06-23T20:50:40.845Z,98502.17
2018-06-23T20:53:08.895Z,98497.02
2018-06-23T20:55:36.879Z,98496.02
2018-06-23T20:58:05.103Z,98487.91
2018-06-23T21:00:34.234Z,98491.92
2018-06-23T21:03:02.342Z,98483.85
2018-06-23T21:05:30.556Z,98481.41
2018-06-23T21:07:58.532Z,98507.80
2018-06-23T21:10:36.889Z,98501.36
2018-06-23T21:13:04.838Z,98489.09
2018-06-23T21:15:32.720Z,98483.46
2018-06-23T21:18:01.010Z,98492.53
2018-06-23T21:20:29.353Z,98493.81
2018-06-23T21:22:57.363Z,98488.34
2018-06-23T21:25:25.356Z,98490.22
2018-06-23T21:27:53.311Z,98487.83
2018-06-23T21:30:21.368Z,98480.66
2018-06-23T21:32:50.464Z,98480.65
2018-06-23T21:35:18.715Z,98491.94
2018-06-23T21:37:46.784Z,98488.34
2018-06-23T21:40:14.897Z,98484.11
2018-06-23T21:42:42.747Z,98491.03
2018-06-23T21:45:10.676Z,98505.25
2018-06-23T21:47:39.177Z,98484.02
2018-06-23T21:50:07.065Z,98481.43
2018-06-23T21:52:35.139Z,98485.67
2018-06-23T21:55:04.432Z,98481.30
2018-06-23T21:57:33.013Z,98499.61
2018-06-23T22:00:01.454Z,98500.63
2018-06-23T22:02:29.510Z,98506.53
2018-06-23T22:04:58.354Z,98502.18
2018-06-23T22:07:26.326Z,98496.05
2018-06-23T22:09:54.296Z,98490.66
2018-06-23T22:12:22.219Z,98493.73
2018-06-23T22:14:51.197Z,98472.09
2018-06-23T22:17:19.267Z,98489.89
2018-06-23T22:19:47.226Z,98510.11
2018-06-23T22:22:15.156Z,98500.86
2018-06-23T22:24:43.111Z,98512.27
2018-06-23T22:27:11.530Z,98496.77
2018-06-23T22:29:39.481Z,98485.50
2018-06-23T22:32:07.416Z,98498.30
2018-06-23T22:34:36.169Z,98497.52
2018-06-23T22:37:04.179Z,98477.05
2018-06-23T22:39:32.306Z,98497.29
2018-06-23T22:42:00.207Z,98497.29
2018-06-23T22:44:28.190Z,98504.69
2018-06-23T22:46:56.218Z,98503.15
2018-06-23T22:49:24.247Z,98498.83
2018-06-23T22:51:52.179Z,98485.23
2018-06-23T22:54:20.128Z,98504.95
2018-06-23T22:56:48.091Z,98492.92
2018-06-23T22:59:16.051Z,98499.81
2018-06-23T23:01:43.974Z,98503.92
2018-06-23T23:04:11.946Z,98494.70
2018-06-23T23:06:39.943Z,98505.43
2018-06-23T23:09:09.515Z,98497.41
2018-06-23T23:11:37.481Z,98493.94
2018-06-23T23:14:06.007Z,98487.16
2018-06-23T23:16:34.122Z,98497.77
2018-06-23T23:19:02.135Z,98491.64
2018-06-23T23:21:30.098Z,98500.70
2018-06-23T23:23:58.014Z,98473.47
2018-06-23T23:26:26.058Z,98503.12
2018-06-23T23:28:54.047Z,98482.55
2018-06-23T23:31:22.054Z,98481.12
2018-06-23T23:33:50.121Z,98492.66
2018-06-23T23:36:18.046Z,98502.61
2018-06-23T23:38:46.382Z,98483.43
2018-06-23T23:41:14.350Z,98474.22
2018-06-23T23:43:42.302Z,98475.02
2018-06-23T23:46:10.268Z,98485.25
2018-06-23T23:48:38.249Z,98483.95
2018-06-23T23:51:06.219Z,98499.27
2018-06-23T23:53:34.221Z,98487.41
2018-06-23T23:56:02.855Z,98480.23
2018-06-23T23:58:30.814Z,98484.83
